createdAt,value
2023-05-08T00:00:59.442Z,12.56
2023-05-08T00:03:27.232Z,12.51
2023-05-08T00:05:55.975Z,12.48
2023-05-08T00:08:22.710Z,12.38
2023-05-08T00:10:49.617Z,12.32
2023-05-08T00:13:16.237Z,12.27
2023-05-08T00:15:42.780Z,12.20
2023-05-08T00:18:09.405Z,12.20
2023-05-08T00:20:35.860Z,12.20
2023-05-08T00:23:02.274Z,12.15
2023-05-08T00:25:28.746Z,12.09
2023-05-08T00:27:55.125Z,12.04
2023-05-08T00:30:22.197Z,12.01
2023-05-08T00:32:48.902Z,12.03
2023-05-08T00:35:15.411Z,12.08
2023-05-08T00:37:43.676Z,12.07
2023-05-08T00:40:11.731Z,12.00
2023-05-08T00:42:38.497Z,11.92
2023-05-08T00:45:05.315Z,11.92
2023-05-08T00:47:32.765Z,11.98
2023-05-08T00:49:59.952Z,11.90
2023-05-08T00:52:29.613Z,11.95
2023-05-08T00:54:56.334Z,11.93
2023-05-08T00:57:23.418Z,11.93
2023-05-08T00:59:50.173Z,11.93
2023-05-08T01:02:16.884Z,11.97
2023-05-08T01:04:46.821Z,11.97
2023-05-08T01:07:13.218Z,11.89
2023-05-08T01:09:39.847Z,11.84
2023-05-08T01:12:35.067Z,11.78
2023-05-08T01:15:14.674Z,11.78
2023-05-08T01:18:06.874Z,11.80
2023-05-08T01:20:49.254Z,11.78
2023-05-08T01:23:37.393Z,11.80
2023-05-08T01:26:37.717Z,11.81
2023-05-08T01:29:41.687Z,11.82
2023-05-08T01:32:28.868Z,11.84
2023-05-08T01:35:10.721Z,11.76
2023-05-08T01:37:49.966Z,11.75
2023-05-08T01:40:35.091Z,11.70
2023-05-08T01:43:13.116Z,11.73
2023-05-08T01:45:44.796Z,11.70
2023-05-08T01:48:17.495Z,11.61
2023-05-08T01:50:52.868Z,11.62
2023-05-08T01:53:43.535Z,11.64
2023-05-08T01:56:13.571Z,11.60
2023-05-08T01:58:42.017Z,11.60
2023-05-08T02:01:10.716Z,11.63
2023-05-08T02:03:39.914Z,11.55
2023-05-08T02:06:09.656Z,11.49
2023-05-08T02:08:37.474Z,11.54
2023-05-08T02:11:05.663Z,11.50
2023-05-08T02:13:35.581Z,11.50
2023-05-08T02:16:03.346Z,11.47
2023-05-08T02:18:31.904Z,11.46
2023-05-08T02:20:59.952Z,11.44
2023-05-08T02:23:27.430Z,11.40
2023-05-08T02:25:55.285Z,11.42
2023-05-08T02:28:23.731Z,11.43
2023-05-08T02:30:51.911Z,11.40
2023-05-08T02:33:18.954Z,11.34
2023-05-08T02:35:49.417Z,11.29
2023-05-08T02:38:19.664Z,11.29
2023-05-08T02:40:49.769Z,11.30
2023-05-08T02:43:16.630Z,11.33
2023-05-08T02:45:49.793Z,11.31
2023-05-08T02:48:26.290Z,11.29
2023-05-08T02:51:11.970Z,11.34
2023-05-08T02:53:47.918Z,11.32
2023-05-08T02:56:29.286Z,11.36
2023-05-08T02:59:00.002Z,11.29
2023-05-08T03:01:33.189Z,11.25
2023-05-08T03:04:04.522Z,11.25
2023-05-08T03:06:37.337Z,11.23
2023-05-08T03:09:06.704Z,11.27
2023-05-08T03:11:42.420Z,11.24
2023-05-08T03:14:16.388Z,11.26
2023-05-08T03:16:47.477Z,11.23
2023-05-08T03:19:24.974Z,11.27
2023-05-08T03:21:53.912Z,11.22
2023-05-08T03:24:24.461Z,11.17
2023-05-08T03:26:51.181Z,11.24
2023-05-08T03:29:18.991Z,11.16
2023-05-08T03:31:47.382Z,11.08
2023-05-08T03:34:16.017Z,11.06
2023-05-08T03:36:42.775Z,11.06
2023-05-08T03:39:09.279Z,11.08
2023-05-08T03:41:36.044Z,11.11
2023-05-08T03:44:03.492Z,11.08
2023-05-08T03:46:31.931Z,11.10
2023-05-08T03:49:00.353Z,11.14
2023-05-08T03:51:28.606Z,11.19
2023-05-08T03:53:55.056Z,11.20
2023-05-08T03:56:22.090Z,11.18
2023-05-08T03:58:52.624Z,11.19
2023-05-08T04:01:41.610Z,11.17
2023-05-08T04:04:21.368Z,11.14
2023-05-08T04:06:56.914Z,11.15
2023-05-08T04:09:43.135Z,11.15
2023-05-08T04:12:23.906Z,11.08
2023-05-08T04:14:59.957Z,11.09
2023-05-08T04:17:49.683Z,11.13
2023-05-08T04:20:25.975Z,11.16
2023-05-08T04:22:54.779Z,11.19
2023-05-08T04:25:21.939Z,11.20
2023-05-08T04:27:51.213Z,11.20
2023-05-08T04:30:18.484Z,11.27
2023-05-08T04:32:46.891Z,11.20
2023-05-08T04:35:14.215Z,11.10
2023-05-08T04:37:43.569Z,11.32
2023-05-08T04:40:10.833Z,11.33
2023-05-08T04:42:39.355Z,11.37
2023-05-08T04:45:06.816Z,11.41
2023-05-08T04:47:33.242Z,11.38
2023-05-08T04:50:01.589Z,11.44
2023-05-08T04:52:29.045Z,11.47
2023-05-08T04:54:55.453Z,11.44
2023-05-08T04:57:21.891Z,11.38
2023-05-08T04:59:48.385Z,11.42
2023-05-08T05:02:15.525Z,11.54
2023-05-08T05:04:41.990Z,11.55
2023-05-08T05:07:08.416Z,11.72
2023-05-08T05:09:39.144Z,11.80
2023-05-08T05:12:06.669Z,11.85
2023-05-08T05:14:33.182Z,11.90
2023-05-08T05:16:59.945Z,11.89
2023-05-08T05:19:27.165Z,11.91
2023-05-08T05:21:53.583Z,12.04
2023-05-08T05:24:19.984Z,12.11
2023-05-08T05:26:46.500Z,12.15
2023-05-08T05:29:13.177Z,12.16
2023-05-08T05:31:39.619Z,12.34
2023-05-08T05:34:06.050Z,12.27
2023-05-08T05:36:32.415Z,12.34
2023-05-08T05:38:58.884Z,12.62
2023-05-08T05:41:30.730Z,12.83
2023-05-08T05:43:57.287Z,12.90
2023-05-08T05:46:28.184Z,13.15
2023-05-08T05:48:54.727Z,13.28
2023-05-08T05:51:21.151Z,13.68
2023-05-08T05:53:47.612Z,13.98
2023-05-08T05:56:13.987Z,14.08
2023-05-08T05:58:44.637Z,13.99
2023-05-08T06:01:11.895Z,14.33
2023-05-08T06:03:38.742Z,14.37
2023-05-08T06:06:05.441Z,14.11
2023-05-08T06:08:33.724Z,14.03
2023-05-08T06:11:03.914Z,14.22
2023-05-08T06:13:30.427Z,14.31
2023-05-08T06:15:57.206Z,14.30
2023-05-08T06:18:26.809Z,14.24
2023-05-08T06:20:59.961Z,14.20
2023-05-08T06:23:27.063Z,14.07
2023-05-08T06:25:54.279Z,14.13
2023-05-08T06:28:22.646Z,14.09
2023-05-08T06:30:49.295Z,14.20
2023-05-08T06:33:15.845Z,14.27
2023-05-08T06:35:46.321Z,14.37
2023-05-08T06:38:12.949Z,14.47
2023-05-08T06:40:54.062Z,14.67
2023-05-08T06:43:29.854Z,14.62
2023-05-08T06:45:56.389Z,14.78
2023-05-08T06:48:22.927Z,15.07
2023-05-08T06:50:51.774Z,15.35
2023-05-08T06:53:20.357Z,15.52
2023-05-08T06:55:49.745Z,16.00
2023-05-08T06:58:16.521Z,16.44
2023-05-08T07:00:43.098Z,16.32
2023-05-08T07:03:09.663Z,16.53
2023-05-08T07:05:36.376Z,16.56
2023-05-08T07:08:06.187Z,17.19
2023-05-08T07:10:33.067Z,17.27
2023-05-08T07:12:59.879Z,17.43
2023-05-08T07:15:31.187Z,17.08
2023-05-08T07:18:01.947Z,17.21
2023-05-08T07:20:29.308Z,17.56
2023-05-08T07:22:55.996Z,17.90
2023-05-08T07:25:30.152Z,17.73
2023-05-08T07:28:01.140Z,17.89
2023-05-08T07:30:36.470Z,17.79
2023-05-08T07:33:05.570Z,17.46
2023-05-08T07:35:34.838Z,17.84
2023-05-08T07:38:04.407Z,18.02
2023-05-08T07:40:31.377Z,17.39
2023-05-08T07:43:00.324Z,17.26
2023-05-08T07:45:28.198Z,17.71
2023-05-08T07:48:05.165Z,17.40
2023-05-08T07:50:37.685Z,17.33
2023-05-08T07:53:06.385Z,17.19
2023-05-08T07:55:33.070Z,17.02
2023-05-08T07:57:59.940Z,16.86
2023-05-08T08:00:29.837Z,16.81
2023-05-08T08:02:56.566Z,16.85
2023-05-08T08:05:23.364Z,16.90
2023-05-08T08:08:28.927Z,17.12
2023-05-08T08:10:55.514Z,17.12
2023-05-08T08:13:24.799Z,17.11
2023-05-08T08:15:52.438Z,17.02
2023-05-08T08:18:19.477Z,16.95
2023-05-08T08:20:46.457Z,17.10
2023-05-08T08:23:13.195Z,16.89
2023-05-08T08:25:39.705Z,16.66
2023-05-08T08:28:11.493Z,16.70
2023-05-08T08:30:38.244Z,16.76
2023-05-08T08:33:06.557Z,16.53
2023-05-08T08:35:33.737Z,16.43
2023-05-08T08:38:03.018Z,16.69
2023-05-08T08:40:29.696Z,16.61
2023-05-08T08:42:56.868Z,16.82
2023-05-08T08:45:23.718Z,16.65
2023-05-08T08:47:52.889Z,16.46
2023-05-08T08:50:20.578Z,16.44
2023-05-08T08:53:04.426Z,16.55
2023-05-08T08:55:32.675Z,16.87
2023-05-08T08:58:21.337Z,16.76
2023-05-08T09:00:49.565Z,16.79
2023-05-08T09:03:16.784Z,16.99
2023-05-08T09:05:45.504Z,16.87
2023-05-08T09:08:20.469Z,16.93
2023-05-08T09:10:47.307Z,16.66
2023-05-08T09:13:14.071Z,16.76
2023-05-08T09:15:41.070Z,16.87
2023-05-08T09:18:07.862Z,16.72
2023-05-08T09:20:40.935Z,16.89
2023-05-08T09:23:08.454Z,17.03
2023-05-08T09:25:45.685Z,17.30
2023-05-08T09:28:21.470Z,17.45
2023-05-08T09:30:54.015Z,17.20
2023-05-08T09:33:25.351Z,16.84
2023-05-08T09:35:51.925Z,16.64
2023-05-08T09:38:44.213Z,16.72
2023-05-08T09:41:15.800Z,16.97
2023-05-08T09:43:44.800Z,16.90
2023-05-08T09:46:25.495Z,17.02
2023-05-08T09:48:56.304Z,17.07
2023-05-08T09:51:24.109Z,17.13
2023-05-08T09:54:09.300Z,17.03
2023-05-08T09:56:40.392Z,17.06
2023-05-08T09:59:33.352Z,17.36
2023-05-08T10:02:12.989Z,17.44
2023-05-08T10:04:39.755Z,17.70
2023-05-08T10:07:06.513Z,17.70
2023-05-08T10:09:43.049Z,17.69
2023-05-08T10:12:21.539Z,17.58
2023-05-08T10:15:11.113Z,17.40
2023-05-08T10:17:56.377Z,17.44
2023-05-08T10:20:28.702Z,17.44
2023-05-08T10:22:57.326Z,17.72
2023-05-08T10:25:25.223Z,17.53
2023-05-08T10:28:15.125Z,17.38
2023-05-08T10:30:48.866Z,17.58
2023-05-08T10:33:18.743Z,17.72
2023-05-08T10:35:46.264Z,17.75
2023-05-08T10:38:15.548Z,17.72
2023-05-08T10:40:42.558Z,17.69
2023-05-08T10:43:10.129Z,17.89
2023-05-08T10:45:38.449Z,17.90
2023-05-08T10:48:44.433Z,17.74
2023-05-08T10:52:07.862Z,17.57
2023-05-08T10:54:48.282Z,17.72
2023-05-08T10:57:15.777Z,17.94
2023-05-08T10:59:46.815Z,17.95
2023-05-08T11:02:15.676Z,18.03
2023-05-08T11:04:44.908Z,18.16
2023-05-08T11:07:11.680Z,18.14
2023-05-08T11:09:44.660Z,18.10
2023-05-08T11:12:25.727Z,18.24
2023-05-08T11:15:00.008Z,18.60
2023-05-08T11:17:27.032Z,18.52
2023-05-08T11:19:57.316Z,18.56
2023-05-08T11:22:35.822Z,18.63
2023-05-08T11:25:19.208Z,18.49
2023-05-08T11:27:51.736Z,18.71
2023-05-08T11:30:37.406Z,18.65
2023-05-08T11:33:04.370Z,18.76
2023-05-08T11:35:43.275Z,18.90
2023-05-08T11:38:29.362Z,18.77
2023-05-08T11:41:30.520Z,18.68
2023-05-08T11:44:20.874Z,18.51
2023-05-08T11:46:53.756Z,18.65
2023-05-08T11:49:27.001Z,18.69
2023-05-08T11:51:58.768Z,18.82
2023-05-08T11:54:29.415Z,18.96
2023-05-08T11:57:05.978Z,18.56
2023-05-08T11:59:58.958Z,18.38
2023-05-08T12:02:46.058Z,18.46
2023-05-08T12:05:12.880Z,18.36
2023-05-08T12:07:48.639Z,18.19
2023-05-08T12:10:16.861Z,18.07
2023-05-08T12:13:00.356Z,17.76
2023-05-08T12:15:27.030Z,18.21
2023-05-08T12:18:03.073Z,18.35
2023-05-08T12:20:30.249Z,18.41
2023-05-08T12:22:57.456Z,18.44
2023-05-08T12:25:25.858Z,18.44
2023-05-08T12:27:52.322Z,18.38
2023-05-08T12:30:19.293Z,18.36
2023-05-08T12:32:46.646Z,18.19
2023-05-08T12:35:14.358Z,18.31
2023-05-08T12:37:40.903Z,18.43
2023-05-08T12:40:08.626Z,18.43
2023-05-08T12:42:50.964Z,18.86
2023-05-08T12:45:29.024Z,19.12
2023-05-08T12:48:04.040Z,19.15
2023-05-08T12:50:35.333Z,19.34
2023-05-08T12:53:06.923Z,19.28
2023-05-08T12:55:36.110Z,19.29
2023-05-08T12:58:06.845Z,19.47
2023-05-08T13:00:41.829Z,19.41
2023-05-08T13:03:25.595Z,19.63
2023-05-08T13:05:56.749Z,19.58
2023-05-08T13:08:34.689Z,19.24
2023-05-08T13:11:02.786Z,19.37
2023-05-08T13:13:36.554Z,19.64
2023-05-08T13:16:06.477Z,19.52
2023-05-08T13:18:36.082Z,19.55
2023-05-08T13:21:03.728Z,19.77
2023-05-08T13:23:30.287Z,19.57
2023-05-08T13:25:57.306Z,19.58
2023-05-08T13:28:23.759Z,19.15
2023-05-08T13:31:05.493Z,19.34
2023-05-08T13:33:31.945Z,19.26
2023-05-08T13:35:58.385Z,19.27
2023-05-08T13:38:24.839Z,19.53
2023-05-08T13:40:52.127Z,19.46
2023-05-08T13:43:18.499Z,19.54
2023-05-08T13:45:44.940Z,19.57
2023-05-08T13:48:11.506Z,19.52
2023-05-08T13:50:37.972Z,19.34
2023-05-08T13:53:04.787Z,19.32
2023-05-08T13:55:31.378Z,19.41
2023-05-08T13:57:58.743Z,19.24
2023-05-08T14:00:27.278Z,19.28
2023-05-08T14:02:54.455Z,19.34
2023-05-08T14:05:21.050Z,19.61
2023-05-08T14:07:47.503Z,19.84
2023-05-08T14:10:13.942Z,19.50
2023-05-08T14:12:40.607Z,19.60
2023-05-08T14:15:07.957Z,19.45
2023-05-08T14:17:34.634Z,19.56
2023-05-08T14:20:01.090Z,19.67
2023-05-08T14:22:27.685Z,19.65
2023-05-08T14:24:54.195Z,19.53
2023-05-08T14:27:20.939Z,19.51
2023-05-08T14:29:47.733Z,19.24
2023-05-08T14:32:14.154Z,19.16
2023-05-08T14:34:40.685Z,19.27
2023-05-08T14:37:07.204Z,19.47
2023-05-08T14:39:33.672Z,19.27
2023-05-08T14:44:33.495Z,19.10
2023-05-08T14:46:59.994Z,18.93
2023-05-08T14:49:36.585Z,18.80
2023-05-08T14:52:04.748Z,19.02
2023-05-08T14:54:31.786Z,18.89
2023-05-08T14:56:58.488Z,18.74
2023-05-08T14:59:24.996Z,18.67
2023-05-08T15:01:51.483Z,18.62
2023-05-08T15:04:18.231Z,18.79
2023-05-08T15:06:44.757Z,18.71
2023-05-08T15:09:11.284Z,18.77
2023-05-08T15:11:38.178Z,18.80
2023-05-08T15:14:05.267Z,18.79
2023-05-08T15:16:31.960Z,18.90
2023-05-08T15:18:58.551Z,18.91
2023-05-08T15:21:26.748Z,18.95
2023-05-08T15:23:54.988Z,18.85
2023-05-08T15:26:22.220Z,18.89
2023-05-08T15:28:49.137Z,18.77
2023-05-08T15:31:16.146Z,18.62
2023-05-08T15:33:44.864Z,18.73
2023-05-08T15:36:13.318Z,18.76
2023-05-08T15:38:41.076Z,18.82
2023-05-08T15:41:07.690Z,18.87
2023-05-08T15:43:34.178Z,18.86
2023-05-08T15:46:00.846Z,18.67
2023-05-08T15:48:27.365Z,18.62
2023-05-08T15:50:53.823Z,18.63
2023-05-08T15:53:20.291Z,18.72
2023-05-08T15:55:46.695Z,18.50
2023-05-08T15:58:14.199Z,18.24
2023-05-08T16:00:44.723Z,18.27
2023-05-08T16:03:12.291Z,18.19
2023-05-08T16:05:39.544Z,17.97
2023-05-08T16:08:06.159Z,18.09
2023-05-08T16:10:32.588Z,18.02
2023-05-08T16:12:59.059Z,17.93
2023-05-08T16:15:25.537Z,17.81
2023-05-08T16:17:51.941Z,17.69
2023-05-08T16:20:18.535Z,17.71
2023-05-08T16:22:46.060Z,17.70
2023-05-08T16:25:12.914Z,17.70
2023-05-08T16:27:39.638Z,17.58
2023-05-08T16:30:06.894Z,17.44
2023-05-08T16:32:33.351Z,17.32
2023-05-08T16:34:59.881Z,17.34
2023-05-08T16:37:26.366Z,17.41
2023-05-08T16:39:52.750Z,17.35
2023-05-08T16:42:19.243Z,17.29
2023-05-08T16:44:45.734Z,17.39
2023-05-08T16:47:12.194Z,17.41
2023-05-08T16:49:38.678Z,17.43
2023-05-08T16:52:05.156Z,17.46
2023-05-08T16:54:31.591Z,17.42
2023-05-08T16:56:58.031Z,17.36
2023-05-08T16:59:24.484Z,17.20
2023-05-08T17:01:50.913Z,17.22
2023-05-08T17:04:17.314Z,17.14
2023-05-08T17:06:44.010Z,17.19
2023-05-08T17:09:10.452Z,17.23
2023-05-08T17:11:36.994Z,17.25
2023-05-08T17:14:03.483Z,17.16
2023-05-08T17:16:30.024Z,17.09
2023-05-08T17:18:56.466Z,17.16
2023-05-08T17:21:22.883Z,17.11
2023-05-08T17:23:49.299Z,17.01
2023-05-08T17:26:15.708Z,16.95
2023-05-08T17:28:42.153Z,16.86
2023-05-08T17:31:09.506Z,16.78
2023-05-08T17:33:35.941Z,16.64
2023-05-08T17:36:02.397Z,16.78
2023-05-08T17:38:28.861Z,16.72
2023-05-08T17:40:56.374Z,16.62
2023-05-08T17:43:22.868Z,16.48
2023-05-08T17:45:49.596Z,16.39
2023-05-08T17:48:16.061Z,16.32
2023-05-08T17:50:43.512Z,16.39
2023-05-08T17:53:10.078Z,16.42
2023-05-08T17:55:37.112Z,16.30
2023-05-08T17:58:03.587Z,16.17
2023-05-08T18:00:30.093Z,16.20
2023-05-08T18:02:56.639Z,16.18
2023-05-08T18:05:23.186Z,16.15
2023-05-08T18:07:49.713Z,16.04
2023-05-08T18:16:41.687Z,15.64
2023-05-08T18:19:37.232Z,15.66
2023-05-08T18:22:03.969Z,15.70
2023-05-08T18:24:33.943Z,15.57
2023-05-08T18:27:05.387Z,15.56
2023-05-08T18:29:32.208Z,15.49
2023-05-08T18:31:58.777Z,15.42
2023-05-08T18:34:33.323Z,15.35
2023-05-08T18:39:40.108Z,15.21
2023-05-08T18:42:09.141Z,15.22
2023-05-08T18:44:37.795Z,15.17
2023-05-08T18:47:27.200Z,15.13
2023-05-08T18:49:57.868Z,15.18
2023-05-08T18:52:24.864Z,15.15
2023-05-08T18:54:52.644Z,15.08
2023-05-08T18:57:19.303Z,14.96
2023-05-08T18:59:45.837Z,14.99
2023-05-08T19:02:36.811Z,14.99
2023-05-08T19:05:19.952Z,14.85
2023-05-08T19:07:46.695Z,14.85
2023-05-08T19:10:13.639Z,14.85
2023-05-08T19:12:47.014Z,14.84
2023-05-08T19:15:19.902Z,14.88
2023-05-08T19:17:51.168Z,14.85
2023-05-08T19:20:31.217Z,14.90
2023-05-08T19:22:57.827Z,14.86
2023-05-08T19:25:24.631Z,14.82
2023-05-08T19:27:51.305Z,14.80
2023-05-08T19:30:17.969Z,14.77
2023-05-08T19:32:46.856Z,14.74
2023-05-08T19:35:13.991Z,14.75
2023-05-08T19:37:43.200Z,14.66
2023-05-08T19:40:10.569Z,14.64
2023-05-08T19:42:37.177Z,14.66
2023-05-08T19:45:06.818Z,14.68
2023-05-08T19:47:34.503Z,14.74
2023-05-08T19:52:50.932Z,14.69
2023-05-08T19:55:27.505Z,14.71
2023-05-08T19:57:57.033Z,14.72
2023-05-08T20:00:24.361Z,14.68
2023-05-08T20:02:51.283Z,14.63
2023-05-08T20:05:22.610Z,14.62
2023-05-08T20:08:02.690Z,14.62
2023-05-08T20:10:35.069Z,14.63
2023-05-08T20:13:19.824Z,14.62
2023-05-08T20:16:04.372Z,14.60
2023-05-08T20:18:43.637Z,14.59
2023-05-08T20:21:15.142Z,14.62
2023-05-08T20:23:50.264Z,14.63
2023-05-08T20:26:26.261Z,14.61
2023-05-08T20:41:01.564Z,14.53
2023-05-08T20:44:41.807Z,14.45
2023-05-08T21:21:04.068Z,14.43
2023-05-08T21:23:31.393Z,14.41
2023-05-08T21:26:23.576Z,14.38
2023-05-08T21:28:53.828Z,14.41
2023-05-08T21:31:20.732Z,14.46
2023-05-08T21:33:47.571Z,14.39
2023-05-08T21:36:14.463Z,14.38
2023-05-08T21:38:43.596Z,14.37
2023-05-08T21:41:35.266Z,14.44
2023-05-08T21:50:06.245Z,14.31
2023-05-08T21:53:20.757Z,14.33
2023-05-08T21:55:58.226Z,14.27
2023-05-08T21:58:27.128Z,14.31
2023-05-08T22:01:12.076Z,14.32
2023-05-08T22:03:38.697Z,14.31
2023-05-08T22:06:05.705Z,14.27
2023-05-08T22:08:44.983Z,14.27
2023-05-08T22:11:18.657Z,14.35
2023-05-08T22:13:48.039Z,14.31
2023-05-08T22:19:37.783Z,14.18
2023-05-08T22:22:27.220Z,14.15
2023-05-08T22:25:29.399Z,14.14
2023-05-08T22:28:06.142Z,14.17
2023-05-08T22:30:52.565Z,14.17
2023-05-08T23:01:55.890Z,13.93
2023-05-08T23:07:20.090Z,13.87
2023-05-08T23:09:46.837Z,13.86
2023-05-08T23:12:14.534Z,13.88
2023-05-08T23:14:41.592Z,13.89
2023-05-08T23:17:08.670Z,13.89
2023-05-08T23:24:03.546Z,13.86
2023-05-08T23:26:30.161Z,13.79
2023-05-08T23:29:03.300Z,13.74
2023-05-08T23:31:30.290Z,13.67
2023-05-08T23:34:02.442Z,13.58
2023-05-08T23:36:39.211Z,13.63
2023-05-08T23:39:05.966Z,13.69
2023-05-08T23:41:39.257Z,13.69
2023-05-08T23:44:05.928Z,13.72
2023-05-08T23:46:32.583Z,13.71
2023-05-08T23:48:59.192Z,13.68
2023-05-08T23:51:25.755Z,13.68
2023-05-08T23:53:54.687Z,13.67
2023-05-08T23:56:27.834Z,13.69
2023-05-08T23:59:05.927Z,13.70
